sensor_id;sensor_type;location;lat;lon;timestamp;temperature;humidity
36424;DHT22;22458;45.328;9.514;2023-02-20T00:00:40;10.70;84.20
36424;DHT22;22458;45.328;9.514;2023-02-20T00:03:06;10.70;84.40
36424;DHT22;22458;45.328;9.514;2023-02-20T00:05:32;10.70;84.40
36424;DHT22;22458;45.328;9.514;2023-02-20T00:07:58;10.80;84.40
36424;DHT22;22458;45.328;9.514;2023-02-20T00:10:24;10.80;84.50
36424;DHT22;22458;45.328;9.514;2023-02-20T00:12:51;10.70;84.50
36424;DHT22;22458;45.328;9.514;2023-02-20T00:15:18;10.70;84.70
36424;DHT22;22458;45.328;9.514;2023-02-20T00:17:45;10.60;84.80
36424;DHT22;22458;45.328;9.514;2023-02-20T00:20:15;10.60;84.90
36424;DHT22;22458;45.328;9.514;2023-02-20T00:22:41;10.60;85.00
36424;DHT22;22458;45.328;9.514;2023-02-20T00:25:07;10.60;84.90
36424;DHT22;22458;45.328;9.514;2023-02-20T00:27:33;10.60;84.80
36424;DHT22;22458;45.328;9.514;2023-02-20T00:29:59;10.60;84.80
36424;DHT22;22458;45.328;9.514;2023-02-20T00:32:24;10.60;84.90
36424;DHT22;22458;45.328;9.514;2023-02-20T00:34:50;10.50;85.00
36424;DHT22;22458;45.328;9.514;2023-02-20T00:37:16;10.40;84.80
36424;DHT22;22458;45.328;9.514;2023-02-20T00:39:42;10.30;84.80
36424;DHT22;22458;45.328;9.514;2023-02-20T00:42:07;10.20;84.90
36424;DHT22;22458;45.328;9.514;2023-02-20T00:44:33;10.10;85.00
36424;DHT22;22458;45.328;9.514;2023-02-20T00:46:59;9.90;85.40
36424;DHT22;22458;45.328;9.514;2023-02-20T00:49:24;9.90;85.60
36424;DHT22;22458;45.328;9.514;2023-02-20T00:51:50;9.80;85.60
36424;DHT22;22458;45.328;9.514;2023-02-20T00:54:16;9.80;85.70
36424;DHT22;22458;45.328;9.514;2023-02-20T00:56:42;9.60;85.70
36424;DHT22;22458;45.328;9.514;2023-02-20T00:59:08;9.50;85.90
36424;DHT22;22458;45.328;9.514;2023-02-20T01:01:34;9.40;85.90
36424;DHT22;22458;45.328;9.514;2023-02-20T01:04:00;9.40;86.10
36424;DHT22;22458;45.328;9.514;2023-02-20T01:06:25;9.40;86.20
36424;DHT22;22458;45.328;9.514;2023-02-20T01:08:51;9.50;86.10
36424;DHT22;22458;45.328;9.514;2023-02-20T01:11:19;9.50;85.90
36424;DHT22;22458;45.328;9.514;2023-02-20T01:13:45;9.50;85.80
36424;DHT22;22458;45.328;9.514;2023-02-20T01:16:11;9.60;85.70
36424;DHT22;22458;45.328;9.514;2023-02-20T01:18:37;9.60;85.60
36424;DHT22;22458;45.328;9.514;2023-02-20T01:21:03;9.50;85.40
36424;DHT22;22458;45.328;9.514;2023-02-20T01:23:29;9.50;85.50
36424;DHT22;22458;45.328;9.514;2023-02-20T01:25:54;9.50;85.40
36424;DHT22;22458;45.328;9.514;2023-02-20T01:28:20;9.50;85.40
36424;DHT22;22458;45.328;9.514;2023-02-20T01:30:46;9.50;85.50
36424;DHT22;22458;45.328;9.514;2023-02-20T01:33:12;9.50;85.50
36424;DHT22;22458;45.328;9.514;2023-02-20T01:35:37;9.50;85.50
36424;DHT22;22458;45.328;9.514;2023-02-20T01:38:03;9.60;85.50
36424;DHT22;22458;45.328;9.514;2023-02-20T01:40:33;9.60;85.70
36424;DHT22;22458;45.328;9.514;2023-02-20T01:43:00;9.60;84.80
36424;DHT22;22458;45.328;9.514;2023-02-20T01:45:35;9.50;84.70
36424;DHT22;22458;45.328;9.514;2023-02-20T01:48:02;9.40;84.60
36424;DHT22;22458;45.328;9.514;2023-02-20T01:50:41;9.30;84.70
36424;DHT22;22458;45.328;9.514;2023-02-20T01:53:10;9.30;84.70
36424;DHT22;22458;45.328;9.514;2023-02-20T01:55:48;9.20;84.90
36424;DHT22;22458;45.328;9.514;2023-02-20T01:58:29;9.10;84.90
36424;DHT22;22458;45.328;9.514;2023-02-20T02:00:56;9.10;84.90
36424;DHT22;22458;45.328;9.514;2023-02-20T02:03:31;9.20;84.90
36424;DHT22;22458;45.328;9.514;2023-02-20T02:06:00;9.10;84.80
36424;DHT22;22458;45.328;9.514;2023-02-20T02:08:28;9.10;84.90
36424;DHT22;22458;45.328;9.514;2023-02-20T02:11:02;9.10;84.80
36424;DHT22;22458;45.328;9.514;2023-02-20T02:13:33;9.10;85.00
36424;DHT22;22458;45.328;9.514;2023-02-20T02:16:10;9.00;85.10
36424;DHT22;22458;45.328;9.514;2023-02-20T02:39:00;9.20;85.50
36424;DHT22;22458;45.328;9.514;2023-02-20T02:41:54;9.30;85.40
36424;DHT22;22458;45.328;9.514;2023-02-20T02:44:43;9.40;85.50
36424;DHT22;22458;45.328;9.514;2023-02-20T02:47:21;9.50;85.50
36424;DHT22;22458;45.328;9.514;2023-02-20T02:49:58;9.40;85.30
36424;DHT22;22458;45.328;9.514;2023-02-20T02:52:26;9.50;85.40
36424;DHT22;22458;45.328;9.514;2023-02-20T02:55:20;9.50;85.40
36424;DHT22;22458;45.328;9.514;2023-02-20T02:57:46;9.40;85.50
36424;DHT22;22458;45.328;9.514;2023-02-20T03:00:19;9.40;85.50
36424;DHT22;22458;45.328;9.514;2023-02-20T03:03:09;9.40;85.50
36424;DHT22;22458;45.328;9.514;2023-02-20T03:05:50;9.30;85.50
36424;DHT22;22458;45.328;9.514;2023-02-20T03:08:26;9.30;85.50
36424;DHT22;22458;45.328;9.514;2023-02-20T03:11:20;9.20;85.50
36424;DHT22;22458;45.328;9.514;2023-02-20T03:13:58;9.10;85.50
36424;DHT22;22458;45.328;9.514;2023-02-20T03:17:14;9.10;85.70
36424;DHT22;22458;45.328;9.514;2023-02-20T03:19:48;9.00;85.60
36424;DHT22;22458;45.328;9.514;2023-02-20T03:24:58;9.00;85.50
36424;DHT22;22458;45.328;9.514;2023-02-20T03:27:54;9.10;85.50
36424;DHT22;22458;45.328;9.514;2023-02-20T03:30:51;9.20;85.20
36424;DHT22;22458;45.328;9.514;2023-02-20T03:33:30;9.20;85.10
36424;DHT22;22458;45.328;9.514;2023-02-20T03:36:21;9.10;85.20
36424;DHT22;22458;45.328;9.514;2023-02-20T03:39:14;9.10;85.30
36424;DHT22;22458;45.328;9.514;2023-02-20T03:42:03;9.00;85.40
36424;DHT22;22458;45.328;9.514;2023-02-20T03:44:55;9.00;85.40
36424;DHT22;22458;45.328;9.514;2023-02-20T03:47:24;9.00;85.40
36424;DHT22;22458;45.328;9.514;2023-02-20T03:49:51;9.00;85.30
36424;DHT22;22458;45.328;9.514;2023-02-20T03:52:20;9.00;85.30
36424;DHT22;22458;45.328;9.514;2023-02-20T03:54:46;9.00;85.40
36424;DHT22;22458;45.328;9.514;2023-02-20T03:57:17;9.00;85.30
36424;DHT22;22458;45.328;9.514;2023-02-20T04:00:02;9.00;85.30
36424;DHT22;22458;45.328;9.514;2023-02-20T04:02:43;9.00;85.20
36424;DHT22;22458;45.328;9.514;2023-02-20T04:05:17;9.00;85.40
36424;DHT22;22458;45.328;9.514;2023-02-20T04:10:33;8.90;85.10
36424;DHT22;22458;45.328;9.514;2023-02-20T04:13:04;8.70;84.90
36424;DHT22;22458;45.328;9.514;2023-02-20T04:15:32;8.60;85.10
36424;DHT22;22458;45.328;9.514;2023-02-20T04:18:04;8.50;85.10
36424;DHT22;22458;45.328;9.514;2023-02-20T04:20:32;8.40;85.10
36424;DHT22;22458;45.328;9.514;2023-02-20T04:23:16;8.50;85.10
36424;DHT22;22458;45.328;9.514;2023-02-20T04:28:23;8.40;85.10
36424;DHT22;22458;45.328;9.514;2023-02-20T04:30:56;8.40;85.30
36424;DHT22;22458;45.328;9.514;2023-02-20T04:33:23;8.40;85.20
36424;DHT22;22458;45.328;9.514;2023-02-20T04:35:53;8.50;85.30
36424;DHT22;22458;45.328;9.514;2023-02-20T04:38:19;8.50;85.20
36424;DHT22;22458;45.328;9.514;2023-02-20T04:40:48;8.50;85.20
36424;DHT22;22458;45.328;9.514;2023-02-20T04:43:15;8.50;85.10
36424;DHT22;22458;45.328;9.514;2023-02-20T04:45:41;8.60;85.10
36424;DHT22;22458;45.328;9.514;2023-02-20T04:48:08;8.50;85.20
36424;DHT22;22458;45.328;9.514;2023-02-20T04:50:34;8.50;85.20
36424;DHT22;22458;45.328;9.514;2023-02-20T04:53:02;8.40;85.20
36424;DHT22;22458;45.328;9.514;2023-02-20T04:55:27;8.40;85.30
36424;DHT22;22458;45.328;9.514;2023-02-20T04:57:56;8.40;85.50
36424;DHT22;22458;45.328;9.514;2023-02-20T05:00:25;8.30;85.90
36424;DHT22;22458;45.328;9.514;2023-02-20T05:02:51;8.20;86.10
36424;DHT22;22458;45.328;9.514;2023-02-20T05:05:27;8.20;86.40
36424;DHT22;22458;45.328;9.514;2023-02-20T05:07:55;8.10;86.60
36424;DHT22;22458;45.328;9.514;2023-02-20T05:10:23;8.10;86.60
36424;DHT22;22458;45.328;9.514;2023-02-20T05:12:49;8.10;86.60
36424;DHT22;22458;45.328;9.514;2023-02-20T05:15:15;8.00;86.70
36424;DHT22;22458;45.328;9.514;2023-02-20T05:17:41;7.90;86.90
36424;DHT22;22458;45.328;9.514;2023-02-20T05:20:07;7.80;87.10
36424;DHT22;22458;45.328;9.514;2023-02-20T05:22:33;7.70;87.40
36424;DHT22;22458;45.328;9.514;2023-02-20T05:24:59;7.70;87.50
36424;DHT22;22458;45.328;9.514;2023-02-20T05:27:26;7.70;87.40
36424;DHT22;22458;45.328;9.514;2023-02-20T05:29:54;7.60;87.40
36424;DHT22;22458;45.328;9.514;2023-02-20T05:32:22;7.60;87.40
36424;DHT22;22458;45.328;9.514;2023-02-20T05:34:49;7.50;87.40
36424;DHT22;22458;45.328;9.514;2023-02-20T05:37:16;7.40;87.50
36424;DHT22;22458;45.328;9.514;2023-02-20T05:39:42;7.30;87.80
36424;DHT22;22458;45.328;9.514;2023-02-20T05:42:08;7.20;87.80
36424;DHT22;22458;45.328;9.514;2023-02-20T05:44:34;7.20;88.00
36424;DHT22;22458;45.328;9.514;2023-02-20T05:47:01;7.20;88.10
36424;DHT22;22458;45.328;9.514;2023-02-20T05:49:27;7.10;88.10
36424;DHT22;22458;45.328;9.514;2023-02-20T05:51:58;7.10;88.20
36424;DHT22;22458;45.328;9.514;2023-02-20T05:54:24;7.10;88.40
36424;DHT22;22458;45.328;9.514;2023-02-20T05:56:50;7.10;88.60
36424;DHT22;22458;45.328;9.514;2023-02-20T05:59:18;7.00;88.80
36424;DHT22;22458;45.328;9.514;2023-02-20T06:01:44;7.00;89.00
36424;DHT22;22458;45.328;9.514;2023-02-20T06:04:10;7.00;89.00
36424;DHT22;22458;45.328;9.514;2023-02-20T06:06:40;7.00;89.20
36424;DHT22;22458;45.328;9.514;2023-02-20T06:09:08;6.90;89.60
36424;DHT22;22458;45.328;9.514;2023-02-20T06:11:38;6.90;89.90
36424;DHT22;22458;45.328;9.514;2023-02-20T06:14:05;6.80;90.00
36424;DHT22;22458;45.328;9.514;2023-02-20T06:16:32;6.80;90.10
36424;DHT22;22458;45.328;9.514;2023-02-20T06:19:00;6.80;90.20
36424;DHT22;22458;45.328;9.514;2023-02-20T06:21:27;6.80;90.30
36424;DHT22;22458;45.328;9.514;2023-02-20T06:23:54;6.70;90.30
36424;DHT22;22458;45.328;9.514;2023-02-20T06:26:20;6.70;90.40
36424;DHT22;22458;45.328;9.514;2023-02-20T06:28:47;6.80;90.40
36424;DHT22;22458;45.328;9.514;2023-02-20T06:31:21;6.80;90.40
36424;DHT22;22458;45.328;9.514;2023-02-20T06:33:47;6.80;90.40
36424;DHT22;22458;45.328;9.514;2023-02-20T06:36:28;6.80;90.50
36424;DHT22;22458;45.328;9.514;2023-02-20T06:38:54;7.00;90.70
36424;DHT22;22458;45.328;9.514;2023-02-20T06:41:19;7.00;90.70
36424;DHT22;22458;45.328;9.514;2023-02-20T06:43:45;7.20;90.70
36424;DHT22;22458;45.328;9.514;2023-02-20T06:46:11;7.30;90.70
36424;DHT22;22458;45.328;9.514;2023-02-20T06:48:47;7.40;90.80
36424;DHT22;22458;45.328;9.514;2023-02-20T06:51:21;7.50;90.80
36424;DHT22;22458;45.328;9.514;2023-02-20T06:53:48;7.50;90.80
36424;DHT22;22458;45.328;9.514;2023-02-20T06:56:20;7.40;90.90
36424;DHT22;22458;45.328;9.514;2023-02-20T06:58:47;7.40;91.00
36424;DHT22;22458;45.328;9.514;2023-02-20T07:01:14;7.30;91.10
36424;DHT22;22458;45.328;9.514;2023-02-20T07:03:40;7.40;91.20
36424;DHT22;22458;45.328;9.514;2023-02-20T07:06:06;7.30;91.20
36424;DHT22;22458;45.328;9.514;2023-02-20T07:08:32;7.30;91.40
36424;DHT22;22458;45.328;9.514;2023-02-20T07:10:58;7.40;91.50
36424;DHT22;22458;45.328;9.514;2023-02-20T07:13:23;7.50;91.50
36424;DHT22;22458;45.328;9.514;2023-02-20T07:15:49;7.60;91.40
36424;DHT22;22458;45.328;9.514;2023-02-20T07:18:15;7.80;91.40
36424;DHT22;22458;45.328;9.514;2023-02-20T07:20:42;7.90;91.40
36424;DHT22;22458;45.328;9.514;2023-02-20T07:23:08;7.90;91.40
36424;DHT22;22458;45.328;9.514;2023-02-20T07:25:33;8.00;91.30
36424;DHT22;22458;45.328;9.514;2023-02-20T07:28:02;8.20;91.40
36424;DHT22;22458;45.328;9.514;2023-02-20T07:30:27;8.40;91.40
36424;DHT22;22458;45.328;9.514;2023-02-20T07:32:53;8.50;91.30
36424;DHT22;22458;45.328;9.514;2023-02-20T07:35:19;8.60;91.30
36424;DHT22;22458;45.328;9.514;2023-02-20T07:37:45;8.60;91.30
36424;DHT22;22458;45.328;9.514;2023-02-20T07:40:11;8.60;91.40
36424;DHT22;22458;45.328;9.514;2023-02-20T07:42:37;8.50;91.60
36424;DHT22;22458;45.328;9.514;2023-02-20T07:45:13;8.50;91.90
36424;DHT22;22458;45.328;9.514;2023-02-20T07:47:38;8.40;92.00
36424;DHT22;22458;45.328;9.514;2023-02-20T07:50:04;8.50;92.20
36424;DHT22;22458;45.328;9.514;2023-02-20T07:52:30;8.70;92.20
36424;DHT22;22458;45.328;9.514;2023-02-20T07:54:56;8.80;92.20
36424;DHT22;22458;45.328;9.514;2023-02-20T07:57:22;8.90;92.20
36424;DHT22;22458;45.328;9.514;2023-02-20T07:59:47;8.90;92.30
36424;DHT22;22458;45.328;9.514;2023-02-20T08:02:13;8.90;92.40
36424;DHT22;22458;45.328;9.514;2023-02-20T08:04:39;8.90;92.50
36424;DHT22;22458;45.328;9.514;2023-02-20T08:07:04;9.10;92.60
36424;DHT22;22458;45.328;9.514;2023-02-20T08:09:33;9.20;92.60
36424;DHT22;22458;45.328;9.514;2023-02-20T08:11:59;9.20;92.70
36424;DHT22;22458;45.328;9.514;2023-02-20T08:14:25;9.30;92.80
36424;DHT22;22458;45.328;9.514;2023-02-20T08:16:53;9.30;92.90
36424;DHT22;22458;45.328;9.514;2023-02-20T08:19:18;9.40;93.10
36424;DHT22;22458;45.328;9.514;2023-02-20T08:21:44;9.50;93.10
36424;DHT22;22458;45.328;9.514;2023-02-20T08:24:10;9.70;93.10
36424;DHT22;22458;45.328;9.514;2023-02-20T08:26:45;9.80;93.10
36424;DHT22;22458;45.328;9.514;2023-02-20T08:29:11;9.90;93.20
36424;DHT22;22458;45.328;9.514;2023-02-20T08:31:37;10.00;93.20
36424;DHT22;22458;45.328;9.514;2023-02-20T08:34:03;10.10;93.40
36424;DHT22;22458;45.328;9.514;2023-02-20T08:36:29;10.10;93.50
36424;DHT22;22458;45.328;9.514;2023-02-20T08:38:55;10.10;93.60
36424;DHT22;22458;45.328;9.514;2023-02-20T08:41:21;10.20;93.70
36424;DHT22;22458;45.328;9.514;2023-02-20T08:43:47;10.40;93.70
36424;DHT22;22458;45.328;9.514;2023-02-20T08:46:13;10.50;93.70
36424;DHT22;22458;45.328;9.514;2023-02-20T08:48:39;10.60;93.70
36424;DHT22;22458;45.328;9.514;2023-02-20T08:51:05;10.70;93.80
36424;DHT22;22458;45.328;9.514;2023-02-20T08:53:32;10.80;93.70
36424;DHT22;22458;45.328;9.514;2023-02-20T08:55:58;11.00;93.60
36424;DHT22;22458;45.328;9.514;2023-02-20T08:58:24;11.20;93.50
36424;DHT22;22458;45.328;9.514;2023-02-20T09:00:50;11.20;93.50
36424;DHT22;22458;45.328;9.514;2023-02-20T09:03:17;11.30;93.40
36424;DHT22;22458;45.328;9.514;2023-02-20T09:05:43;11.40;93.30
36424;DHT22;22458;45.328;9.514;2023-02-20T09:08:09;11.50;93.20
36424;DHT22;22458;45.328;9.514;2023-02-20T09:10:35;11.60;93.20
36424;DHT22;22458;45.328;9.514;2023-02-20T09:13:01;11.60;93.20
36424;DHT22;22458;45.328;9.514;2023-02-20T09:15:27;11.70;93.10
36424;DHT22;22458;45.328;9.514;2023-02-20T09:17:53;11.80;93.10
36424;DHT22;22458;45.328;9.514;2023-02-20T09:20:20;11.80;93.00
36424;DHT22;22458;45.328;9.514;2023-02-20T09:22:48;11.90;92.90
36424;DHT22;22458;45.328;9.514;2023-02-20T09:25:15;12.00;92.80
36424;DHT22;22458;45.328;9.514;2023-02-20T09:27:41;12.00;92.80
36424;DHT22;22458;45.328;9.514;2023-02-20T09:30:08;12.10;92.70
36424;DHT22;22458;45.328;9.514;2023-02-20T09:32:34;12.10;92.60
36424;DHT22;22458;45.328;9.514;2023-02-20T09:35:00;12.00;92.60
36424;DHT22;22458;45.328;9.514;2023-02-20T09:37:25;12.10;92.60
36424;DHT22;22458;45.328;9.514;2023-02-20T09:39:51;12.10;92.50
36424;DHT22;22458;45.328;9.514;2023-02-20T09:45:17;12.40;92.30
36424;DHT22;22458;45.328;9.514;2023-02-20T09:48:05;12.40;92.30
36424;DHT22;22458;45.328;9.514;2023-02-20T09:50:52;12.50;92.20
36424;DHT22;22458;45.328;9.514;2023-02-20T09:55:46;12.60;92.10
36424;DHT22;22458;45.328;9.514;2023-02-20T09:58:46;12.70;92.00
36424;DHT22;22458;45.328;9.514;2023-02-20T10:01:17;12.80;91.80
36424;DHT22;22458;45.328;9.514;2023-02-20T10:06:28;13.00;91.70
36424;DHT22;22458;45.328;9.514;2023-02-20T10:08:55;13.10;91.60
36424;DHT22;22458;45.328;9.514;2023-02-20T10:16:54;13.50;91.20
36424;DHT22;22458;45.328;9.514;2023-02-20T10:22:19;13.40;91.30
36424;DHT22;22458;45.328;9.514;2023-02-20T10:25:08;13.40;91.00
36424;DHT22;22458;45.328;9.514;2023-02-20T10:30:42;13.30;90.90
36424;DHT22;22458;45.328;9.514;2023-02-20T10:33:34;13.30;91.00
36424;DHT22;22458;45.328;9.514;2023-02-20T10:38:44;13.50;90.90
36424;DHT22;22458;45.328;9.514;2023-02-20T10:41:30;13.50;90.80
36424;DHT22;22458;45.328;9.514;2023-02-20T10:44:18;13.40;90.80
36424;DHT22;22458;45.328;9.514;2023-02-20T10:47:11;13.30;90.80
36424;DHT22;22458;45.328;9.514;2023-02-20T10:50:18;13.50;91.00
36424;DHT22;22458;45.328;9.514;2023-02-20T10:52:40;13.50;90.70
36424;DHT22;22458;45.328;9.514;2023-02-20T10:55:23;13.60;90.60
36424;DHT22;22458;45.328;9.514;2023-02-20T10:57:56;13.70;90.40
36424;DHT22;22458;45.328;9.514;2023-02-20T11:00:31;13.70;90.40
36424;DHT22;22458;45.328;9.514;2023-02-20T11:03:29;13.80;90.30
36424;DHT22;22458;45.328;9.514;2023-02-20T11:05:59;13.70;90.20
36424;DHT22;22458;45.328;9.514;2023-02-20T11:08:26;13.70;90.30
36424;DHT22;22458;45.328;9.514;2023-02-20T11:10:57;13.80;90.30
36424;DHT22;22458;45.328;9.514;2023-02-20T11:13:24;13.80;90.20
36424;DHT22;22458;45.328;9.514;2023-02-20T11:15:53;13.80;90.30
36424;DHT22;22458;45.328;9.514;2023-02-20T11:18:36;13.70;90.30
36424;DHT22;22458;45.328;9.514;2023-02-20T11:21:03;13.80;90.30
36424;DHT22;22458;45.328;9.514;2023-02-20T11:23:43;13.80;90.10
36424;DHT22;22458;45.328;9.514;2023-02-20T11:26:30;13.90;90.00
36424;DHT22;22458;45.328;9.514;2023-02-20T11:29:12;14.00;89.70
36424;DHT22;22458;45.328;9.514;2023-02-20T11:31:40;13.90;89.80
36424;DHT22;22458;45.328;9.514;2023-02-20T11:34:17;13.90;89.80
36424;DHT22;22458;45.328;9.514;2023-02-20T11:36:52;14.00;89.80
36424;DHT22;22458;45.328;9.514;2023-02-20T11:39:25;14.00;89.70
36424;DHT22;22458;45.328;9.514;2023-02-20T11:42:05;14.10;89.70
36424;DHT22;22458;45.328;9.514;2023-02-20T11:44:31;14.10;89.50
36424;DHT22;22458;45.328;9.514;2023-02-20T11:47:17;14.20;89.40
36424;DHT22;22458;45.328;9.514;2023-02-20T11:49:44;14.10;89.10
36424;DHT22;22458;45.328;9.514;2023-02-20T11:52:18;14.10;89.30
36424;DHT22;22458;45.328;9.514;2023-02-20T11:54:45;14.10;89.30
36424;DHT22;22458;45.328;9.514;2023-02-20T11:57:22;14.10;89.10
36424;DHT22;22458;45.328;9.514;2023-02-20T11:59:51;14.20;88.90
36424;DHT22;22458;45.328;9.514;2023-02-20T12:05:38;14.20;88.60
36424;DHT22;22458;45.328;9.514;2023-02-20T12:10:52;14.20;88.50
36424;DHT22;22458;45.328;9.514;2023-02-20T12:13:19;14.30;88.40
36424;DHT22;22458;45.328;9.514;2023-02-20T12:15:52;14.40;88.20
36424;DHT22;22458;45.328;9.514;2023-02-20T12:24:09;14.50;87.50
36424;DHT22;22458;45.328;9.514;2023-02-20T12:26:53;14.60;87.60
36424;DHT22;22458;45.328;9.514;2023-02-20T12:29:50;14.60;87.70
36424;DHT22;22458;45.328;9.514;2023-02-20T12:35:05;14.70;87.40
36424;DHT22;22458;45.328;9.514;2023-02-20T12:38:04;14.80;87.10
36424;DHT22;22458;45.328;9.514;2023-02-20T12:40:47;15.00;86.90
36424;DHT22;22458;45.328;9.514;2023-02-20T12:43:46;15.10;86.70
36424;DHT22;22458;45.328;9.514;2023-02-20T12:46:22;15.10;86.40
36424;DHT22;22458;45.328;9.514;2023-02-20T12:54:35;15.20;86.00
36424;DHT22;22458;45.328;9.514;2023-02-20T12:57:11;15.30;86.00
36424;DHT22;22458;45.328;9.514;2023-02-20T13:00:00;15.20;85.70
36424;DHT22;22458;45.328;9.514;2023-02-20T13:02:58;15.30;86.10
36424;DHT22;22458;45.328;9.514;2023-02-20T13:05:25;15.30;85.80
36424;DHT22;22458;45.328;9.514;2023-02-20T13:07:59;15.40;85.70
36424;DHT22;22458;45.328;9.514;2023-02-20T13:10:34;15.50;85.40
36424;DHT22;22458;45.328;9.514;2023-02-20T13:13:03;15.60;85.00
36424;DHT22;22458;45.328;9.514;2023-02-20T13:15:47;15.60;85.00
36424;DHT22;22458;45.328;9.514;2023-02-20T13:18:41;15.70;84.90
36424;DHT22;22458;45.328;9.514;2023-02-20T13:21:21;15.90;84.40
36424;DHT22;22458;45.328;9.514;2023-02-20T13:23:47;16.00;84.30
36424;DHT22;22458;45.328;9.514;2023-02-20T13:29:17;16.00;83.60
36424;DHT22;22458;45.328;9.514;2023-02-20T13:31:50;15.90;83.30
36424;DHT22;22458;45.328;9.514;2023-02-20T13:34:35;15.80;83.60
36424;DHT22;22458;45.328;9.514;2023-02-20T13:37:01;15.70;83.80
36424;DHT22;22458;45.328;9.514;2023-02-20T13:57:48;16.50;81.60
36424;DHT22;22458;45.328;9.514;2023-02-20T14:00:26;16.60;81.50
36424;DHT22;22458;45.328;9.514;2023-02-20T14:02:53;16.60;81.40
36424;DHT22;22458;45.328;9.514;2023-02-20T14:05:28;16.60;81.30
36424;DHT22;22458;45.328;9.514;2023-02-20T14:07:55;16.60;81.30
36424;DHT22;22458;45.328;9.514;2023-02-20T14:15:33;16.50;81.30
36424;DHT22;22458;45.328;9.514;2023-02-20T14:18:19;16.40;81.40
36424;DHT22;22458;45.328;9.514;2023-02-20T14:20:47;16.40;81.40
36424;DHT22;22458;45.328;9.514;2023-02-20T14:23:29;16.40;81.60
36424;DHT22;22458;45.328;9.514;2023-02-20T14:25:58;16.40;81.40
36424;DHT22;22458;45.328;9.514;2023-02-20T14:28:24;16.40;81.70
36424;DHT22;22458;45.328;9.514;2023-02-20T14:37:18;16.50;81.30
36424;DHT22;22458;45.328;9.514;2023-02-20T14:39:58;16.50;81.50
36424;DHT22;22458;45.328;9.514;2023-02-20T14:42:27;16.40;81.70
36424;DHT22;22458;45.328;9.514;2023-02-20T14:45:05;16.30;81.80
36424;DHT22;22458;45.328;9.514;2023-02-20T14:47:31;16.40;81.90
36424;DHT22;22458;45.328;9.514;2023-02-20T14:50:13;16.40;81.80
36424;DHT22;22458;45.328;9.514;2023-02-20T14:52:39;16.40;81.40
36424;DHT22;22458;45.328;9.514;2023-02-20T14:55:05;16.30;81.60
36424;DHT22;22458;45.328;9.514;2023-02-20T14:57:31;16.30;81.50
36424;DHT22;22458;45.328;9.514;2023-02-20T15:02:43;16.40;81.40
36424;DHT22;22458;45.328;9.514;2023-02-20T15:05:14;16.40;81.20
36424;DHT22;22458;45.328;9.514;2023-02-20T15:07:41;16.30;81.20
36424;DHT22;22458;45.328;9.514;2023-02-20T15:10:38;16.30;81.20
36424;DHT22;22458;45.328;9.514;2023-02-20T15:13:09;16.40;81.00
36424;DHT22;22458;45.328;9.514;2023-02-20T15:15:38;16.30;81.00
36424;DHT22;22458;45.328;9.514;2023-02-20T15:18:11;16.30;81.00
36424;DHT22;22458;45.328;9.514;2023-02-20T15:20:44;16.50;80.70
36424;DHT22;22458;45.328;9.514;2023-02-20T15:23:24;16.60;80.40
36424;DHT22;22458;45.328;9.514;2023-02-20T15:25:52;16.70;80.10
36424;DHT22;22458;45.328;9.514;2023-02-20T15:33:46;16.60;80.10
36424;DHT22;22458;45.328;9.514;2023-02-20T15:36:14;16.80;80.20
36424;DHT22;22458;45.328;9.514;2023-02-20T15:38:42;17.00;79.90
36424;DHT22;22458;45.328;9.514;2023-02-20T15:41:09;17.20;79.10
36424;DHT22;22458;45.328;9.514;2023-02-20T15:43:35;17.40;78.60
36424;DHT22;22458;45.328;9.514;2023-02-20T15:46:01;17.30;77.80
36424;DHT22;22458;45.328;9.514;2023-02-20T15:48:27;17.10;77.90
36424;DHT22;22458;45.328;9.514;2023-02-20T15:50:53;16.90;77.80
36424;DHT22;22458;45.328;9.514;2023-02-20T15:53:24;16.80;78.10
36424;DHT22;22458;45.328;9.514;2023-02-20T15:55:52;16.80;78.30
36424;DHT22;22458;45.328;9.514;2023-02-20T15:58:25;16.70;78.00
36424;DHT22;22458;45.328;9.514;2023-02-20T16:00:52;16.70;78.20
36424;DHT22;22458;45.328;9.514;2023-02-20T16:03:24;16.70;78.10
36424;DHT22;22458;45.328;9.514;2023-02-20T16:05:51;16.60;78.00
36424;DHT22;22458;45.328;9.514;2023-02-20T16:08:18;16.60;78.70
36424;DHT22;22458;45.328;9.514;2023-02-20T16:10:44;16.50;78.20
36424;DHT22;22458;45.328;9.514;2023-02-20T16:13:31;16.50;78.40
36424;DHT22;22458;45.328;9.514;2023-02-20T16:16:05;16.50;78.30
36424;DHT22;22458;45.328;9.514;2023-02-20T16:18:31;16.50;78.40
36424;DHT22;22458;45.328;9.514;2023-02-20T16:20:57;16.50;78.20
36424;DHT22;22458;45.328;9.514;2023-02-20T16:23:22;16.50;78.00
36424;DHT22;22458;45.328;9.514;2023-02-20T16:25:49;16.60;77.80
36424;DHT22;22458;45.328;9.514;2023-02-20T16:28:15;16.50;77.70
36424;DHT22;22458;45.328;9.514;2023-02-20T16:30:42;16.50;77.80
36424;DHT22;22458;45.328;9.514;2023-02-20T16:33:22;16.50;77.90
36424;DHT22;22458;45.328;9.514;2023-02-20T16:35:49;16.40;77.90
36424;DHT22;22458;45.328;9.514;2023-02-20T16:38:15;16.30;78.20
36424;DHT22;22458;45.328;9.514;2023-02-20T16:40:41;16.00;78.40
36424;DHT22;22458;45.328;9.514;2023-02-20T16:43:12;16.00;78.80
36424;DHT22;22458;45.328;9.514;2023-02-20T16:45:38;15.90;79.00
36424;DHT22;22458;45.328;9.514;2023-02-20T16:48:17;15.90;79.20
36424;DHT22;22458;45.328;9.514;2023-02-20T16:50:47;15.90;79.10
36424;DHT22;22458;45.328;9.514;2023-02-20T16:53:14;15.90;79.30
36424;DHT22;22458;45.328;9.514;2023-02-20T16:55:40;15.90;79.20
36424;DHT22;22458;45.328;9.514;2023-02-20T16:58:07;15.90;79.20
36424;DHT22;22458;45.328;9.514;2023-02-20T17:00:35;15.80;79.30
36424;DHT22;22458;45.328;9.514;2023-02-20T17:03:02;15.80;79.50
36424;DHT22;22458;45.328;9.514;2023-02-20T17:05:30;15.70;79.70
36424;DHT22;22458;45.328;9.514;2023-02-20T17:07:57;15.70;80.00
36424;DHT22;22458;45.328;9.514;2023-02-20T17:10:24;15.50;80.10
36424;DHT22;22458;45.328;9.514;2023-02-20T17:12:50;15.50;80.20
36424;DHT22;22458;45.328;9.514;2023-02-20T17:15:18;15.40;80.30
36424;DHT22;22458;45.328;9.514;2023-02-20T17:17:45;15.30;80.40
36424;DHT22;22458;45.328;9.514;2023-02-20T17:20:16;15.30;80.50
36424;DHT22;22458;45.328;9.514;2023-02-20T17:22:43;15.20;80.60
36424;DHT22;22458;45.328;9.514;2023-02-20T17:25:14;15.10;80.70
36424;DHT22;22458;45.328;9.514;2023-02-20T17:27:40;15.00;80.80
36424;DHT22;22458;45.328;9.514;2023-02-20T17:30:06;15.00;81.00
36424;DHT22;22458;45.328;9.514;2023-02-20T17:32:32;15.00;81.00
36424;DHT22;22458;45.328;9.514;2023-02-20T17:34:58;14.90;81.10
36424;DHT22;22458;45.328;9.514;2023-02-20T17:37:24;14.90;81.20
36424;DHT22;22458;45.328;9.514;2023-02-20T17:39:55;14.80;81.10
36424;DHT22;22458;45.328;9.514;2023-02-20T17:42:21;14.70;81.10
36424;DHT22;22458;45.328;9.514;2023-02-20T17:44:47;14.70;81.00
36424;DHT22;22458;45.328;9.514;2023-02-20T17:47:15;14.60;80.90
36424;DHT22;22458;45.328;9.514;2023-02-20T17:49:41;14.50;80.90
36424;DHT22;22458;45.328;9.514;2023-02-20T17:52:08;14.50;81.00